METAR Formatted Surface Weather Observation
Issued by NWS

Home | Current Version | Previous Version | Text Only | Print | Product List | Glossary On
Versions: 1 2 3 4 5 6 7 8 9 10 11 12 13 14 15 16 17 18 19
000
SAUS45 KTWC 200552
MTRSAD
METAR KSAD 200551Z AUTO 31003KT 10SM CLR 14/05 A3006 RMK AO2 SLP147
T01390050 10211 20139 51007



USA.gov is the U.S. government's official web portal to all federal, state and local government web resources and services.